createdAt,value
2019-02-08T00:01:51.286Z,2.50
2019-02-08T00:04:21.498Z,2.23
2019-02-08T00:06:52.021Z,2.00
2019-02-08T00:09:22.458Z,1.97
2019-02-08T00:11:53.324Z,1.53
2019-02-08T00:14:23.888Z,2.10
2019-02-08T00:16:54.115Z,1.83
2019-02-08T00:19:24.379Z,2.10
2019-02-08T00:21:54.639Z,2.00
2019-02-08T00:24:24.941Z,1.90
2019-02-08T00:26:55.872Z,1.60
2019-02-08T00:29:26.040Z,2.00
2019-02-08T00:31:56.309Z,2.07
2019-02-08T00:34:26.573Z,2.23
2019-02-08T00:36:56.864Z,1.87
2019-02-08T00:39:27.617Z,1.87
2019-02-08T00:41:58.132Z,1.83
2019-02-08T00:44:28.395Z,2.73
2019-02-08T00:46:59.072Z,1.97
2019-02-08T00:49:30.435Z,3.03
2019-02-08T00:52:00.745Z,2.07
2019-02-08T00:54:31.288Z,2.13
2019-02-08T00:57:01.601Z,1.80
2019-02-08T00:59:31.771Z,2.03
2019-02-08T01:02:02.381Z,2.00
2019-02-08T01:04:32.681Z,2.30
2019-02-08T01:07:03.312Z,1.93
2019-02-08T01:09:34.798Z,1.93
2019-02-08T01:12:06.208Z,2.30
2019-02-08T01:14:37.472Z,1.80
2019-02-08T01:17:08.114Z,2.07
2019-02-08T01:19:38.298Z,1.80
2019-02-08T01:22:09.205Z,1.53
2019-02-08T01:24:39.429Z,1.83
2019-02-08T01:27:11.016Z,2.70
2019-02-08T01:29:41.169Z,2.33
2019-02-08T01:32:11.396Z,1.80
2019-02-08T01:34:41.625Z,1.87
2019-02-08T01:37:11.827Z,2.67
2019-02-08T01:39:42.338Z,2.63
2019-02-08T01:42:12.894Z,1.90
2019-02-08T01:44:43.153Z,2.77
2019-02-08T01:47:13.452Z,1.93
2019-02-08T01:49:43.930Z,2.03
2019-02-08T01:52:14.160Z,1.90
2019-02-08T01:54:44.700Z,2.80
2019-02-08T01:57:14.914Z,2.70
2019-02-08T01:59:45.074Z,1.87
2019-02-08T02:02:15.286Z,2.10
2019-02-08T02:04:45.488Z,1.90
2019-02-08T02:07:15.791Z,2.27
2019-02-08T02:09:46.446Z,1.97
2019-02-08T02:12:17.182Z,2.07
2019-02-08T02:14:47.744Z,2.30
2019-02-08T02:17:17.954Z,1.87
2019-02-08T02:19:48.106Z,2.00
2019-02-08T02:22:18.737Z,2.20
2019-02-08T02:24:48.923Z,1.90
2019-02-08T02:27:19.185Z,2.00
2019-02-08T02:29:49.753Z,2.33
2019-02-08T02:32:19.982Z,2.20
2019-02-08T02:34:50.134Z,2.07
2019-02-08T02:37:20.674Z,2.07
2019-02-08T02:39:50.842Z,2.00
2019-02-08T02:42:21.114Z,2.13
2019-02-08T02:44:52.503Z,2.93
2019-02-08T02:47:22.653Z,2.80
2019-02-08T02:49:52.834Z,2.17
2019-02-08T02:52:23.329Z,2.70
2019-02-08T02:54:53.521Z,2.30
2019-02-08T02:57:23.745Z,2.53
2019-02-08T02:59:53.918Z,2.70
2019-02-08T03:02:24.162Z,2.03
2019-02-08T03:04:54.454Z,2.20
2019-02-08T03:07:24.969Z,2.37
2019-02-08T03:09:55.127Z,2.60
2019-02-08T03:12:25.418Z,2.33
2019-02-08T03:14:55.671Z,3.03
2019-02-08T03:17:25.842Z,2.77
2019-02-08T03:19:56.066Z,2.60
2019-02-08T03:22:27.712Z,3.03
2019-02-08T03:24:57.933Z,2.70
2019-02-08T03:27:28.241Z,2.60
2019-02-08T03:29:58.749Z,2.50
2019-02-08T03:32:28.985Z,2.43
2019-02-08T03:34:59.123Z,2.97
2019-02-08T03:37:29.646Z,3.27
2019-02-08T03:39:59.883Z,2.80
2019-02-08T03:42:30.073Z,2.63
2019-02-08T03:45:00.609Z,2.83
2019-02-08T03:47:30.816Z,3.00
2019-02-08T03:50:01.001Z,3.00
2019-02-08T03:52:31.357Z,2.50
2019-02-08T03:55:01.598Z,3.00
2019-02-08T03:57:32.908Z,2.90
2019-02-08T04:00:03.538Z,3.43
2019-02-08T04:02:34.799Z,2.67
2019-02-08T04:05:06.560Z,3.00
2019-02-08T04:07:36.828Z,2.57
2019-02-08T04:10:08.918Z,2.60
2019-02-08T04:12:39.142Z,2.93
2019-02-08T04:15:12.482Z,3.10
2019-02-08T04:17:42.689Z,2.50
2019-02-08T04:20:14.439Z,2.70
2019-02-08T04:22:44.819Z,2.90
2019-02-08T04:25:16.913Z,2.77
2019-02-08T04:27:47.131Z,3.00
2019-02-08T04:30:23.746Z,2.53
2019-02-08T04:32:54.274Z,2.63
2019-02-08T04:35:25.038Z,3.67
2019-02-08T04:37:56.076Z,2.70
2019-02-08T04:40:26.847Z,2.80
2019-02-08T04:42:57.537Z,2.43
2019-02-08T04:45:27.690Z,2.50
2019-02-08T04:47:57.920Z,2.73
2019-02-08T04:50:28.336Z,2.97
2019-02-08T04:52:58.790Z,2.70
2019-02-08T04:55:29.279Z,2.70
2019-02-08T04:57:59.489Z,2.87
2019-02-08T05:00:32.434Z,3.70
2019-02-08T05:03:02.705Z,3.17
2019-02-08T05:05:32.889Z,4.03
2019-02-08T05:08:03.474Z,2.50
2019-02-08T05:10:33.871Z,2.30
2019-02-08T05:13:04.108Z,2.80
2019-02-08T05:15:34.467Z,3.00
2019-02-08T05:18:05.002Z,2.93
2019-02-08T05:20:35.761Z,2.50
2019-02-08T05:23:06.022Z,2.80
2019-02-08T05:25:36.878Z,3.00
2019-02-08T05:28:07.180Z,3.80
2019-02-08T05:30:37.734Z,3.70
2019-02-08T05:33:08.571Z,2.53
2019-02-08T05:35:38.730Z,3.57
2019-02-08T05:38:09.352Z,2.60
2019-02-08T05:40:39.559Z,3.87
2019-02-08T05:43:10.315Z,3.30
2019-02-08T05:45:40.509Z,2.90
2019-02-08T05:48:10.755Z,2.90
2019-02-08T05:50:41.224Z,4.00
2019-02-08T05:53:11.445Z,3.10
2019-02-08T05:55:42.002Z,2.80
2019-02-08T05:58:12.217Z,3.47
2019-02-08T06:00:52.521Z,2.70
2019-02-08T06:03:22.798Z,2.80
2019-02-08T06:05:53.323Z,3.23
2019-02-08T06:08:23.587Z,2.77
2019-02-08T06:10:53.791Z,3.50
2019-02-08T06:13:24.026Z,3.07
2019-02-08T06:15:54.252Z,3.23
2019-02-08T06:18:24.545Z,3.50
2019-02-08T06:20:55.804Z,3.53
2019-02-08T06:23:26.068Z,3.43
2019-02-08T06:25:56.609Z,3.30
2019-02-08T06:28:27.084Z,3.60
2019-02-08T06:30:57.238Z,4.03
2019-02-08T06:33:27.834Z,3.37
2019-02-08T06:35:58.832Z,3.20
2019-02-08T06:38:29.104Z,3.67
2019-02-08T06:40:59.270Z,4.47
2019-02-08T06:43:29.854Z,3.60
2019-02-08T06:46:00.400Z,3.83
2019-02-08T06:48:30.689Z,4.10
2019-02-08T06:51:01.151Z,3.70
2019-02-08T06:53:31.399Z,4.20
2019-02-08T06:56:01.568Z,3.93
2019-02-08T06:58:51.014Z,3.77
2019-02-08T07:01:40.116Z,3.50
2019-02-08T07:04:21.485Z,4.17
2019-02-08T07:07:01.428Z,4.97
2019-02-08T07:09:49.958Z,4.27
2019-02-08T07:12:29.247Z,4.13
2019-02-08T07:15:30.583Z,4.43
2019-02-08T07:18:14.932Z,4.63
2019-02-08T07:21:06.894Z,4.30
2019-02-08T07:23:52.440Z,4.80
2019-02-08T07:26:40.680Z,4.87
2019-02-08T07:29:21.644Z,4.93
2019-02-08T07:32:14.198Z,4.97
2019-02-08T07:35:06.035Z,4.87
2019-02-08T07:38:13.606Z,4.17
2019-02-08T07:41:14.696Z,5.40
2019-02-08T07:44:03.448Z,5.03
2019-02-08T07:46:56.873Z,9.80
2019-02-08T07:49:46.015Z,5.30
2019-02-08T07:52:41.291Z,5.33
2019-02-08T07:55:45.625Z,4.80
2019-02-08T07:58:34.089Z,4.40
2019-02-08T08:01:21.342Z,5.87
2019-02-08T08:04:10.687Z,4.90
2019-02-08T08:07:06.173Z,4.37
2019-02-08T08:09:54.018Z,4.70
2019-02-08T08:13:02.310Z,4.90
2019-02-08T08:15:51.793Z,4.73
2019-02-08T08:18:54.073Z,4.80
2019-02-08T08:21:42.128Z,5.73
2019-02-08T08:24:34.623Z,4.77
2019-02-08T08:27:20.134Z,5.93
2019-02-08T08:30:20.766Z,5.20
2019-02-08T08:33:08.972Z,4.57
2019-02-08T08:36:20.384Z,4.57
2019-02-08T08:39:17.136Z,6.40
2019-02-08T08:42:21.226Z,5.37
2019-02-08T08:45:35.714Z,4.50
2019-02-08T08:48:55.126Z,4.60
2019-02-08T08:51:48.885Z,10.20
2019-02-08T08:54:59.718Z,4.77
2019-02-08T08:58:12.721Z,4.93
2019-02-08T09:01:31.398Z,4.60
2019-02-08T09:04:42.032Z,4.43
2019-02-08T09:08:11.599Z,3.80
2019-02-08T09:11:26.214Z,3.90
2019-02-08T09:14:23.752Z,4.20
2019-02-08T09:17:52.977Z,4.20
2019-02-08T09:20:54.375Z,3.60
2019-02-08T09:23:55.745Z,3.90
2019-02-08T09:27:04.186Z,4.00
2019-02-08T09:30:17.473Z,3.50
2019-02-08T09:33:31.129Z,4.07
2019-02-08T09:36:48.085Z,4.30
2019-02-08T09:39:54.433Z,3.80
2019-02-08T09:42:57.529Z,4.07
2019-02-08T09:46:10.554Z,3.50
2019-02-08T09:49:17.789Z,4.27
2019-02-08T09:52:28.020Z,3.37
2019-02-08T09:55:36.369Z,3.47
2019-02-08T09:58:59.613Z,3.50
2019-02-08T10:02:26.169Z,2.80
2019-02-08T10:05:24.496Z,3.33
2019-02-08T10:08:17.215Z,2.90
2019-02-08T10:11:40.554Z,3.30
2019-02-08T10:14:46.262Z,3.23
2019-02-08T10:18:00.511Z,3.60
2019-02-08T10:21:14.477Z,3.63
2019-02-08T10:24:34.939Z,3.20
2019-02-08T10:28:00.432Z,2.97
2019-02-08T10:31:10.342Z,2.67
2019-02-08T10:34:16.504Z,2.80
2019-02-08T10:37:37.007Z,2.70
2019-02-08T10:40:44.325Z,2.90
2019-02-08T10:44:07.123Z,2.83
2019-02-08T10:47:32.459Z,2.80
2019-02-08T10:50:46.644Z,2.30
2019-02-08T10:53:54.735Z,3.07
2019-02-08T10:57:04.535Z,2.43
2019-02-08T11:00:29.838Z,1.93
2019-02-08T11:03:52.856Z,3.33
2019-02-08T11:07:08.506Z,2.60
2019-02-08T11:10:10.418Z,2.60
2019-02-08T11:13:10.128Z,2.73
2019-02-08T11:16:35.457Z,2.50
2019-02-08T11:19:20.228Z,3.30
2019-02-08T11:21:52.241Z,2.80
2019-02-08T11:24:24.609Z,3.23
2019-02-08T11:26:56.636Z,2.50
2019-02-08T11:29:27.244Z,2.53
2019-02-08T11:31:57.727Z,2.90
2019-02-08T11:34:27.914Z,3.37
2019-02-08T11:36:58.111Z,3.43
2019-02-08T11:39:28.329Z,2.30
2019-02-08T11:41:58.485Z,2.23
2019-02-08T11:44:29.051Z,3.40
2019-02-08T11:46:59.256Z,2.83
2019-02-08T11:49:30.540Z,3.37
2019-02-08T11:52:00.764Z,3.63
2019-02-08T11:54:30.959Z,2.70
2019-02-08T11:57:01.527Z,3.40
2019-02-08T11:59:31.761Z,3.77
2019-02-08T12:02:02.265Z,3.97
2019-02-08T12:04:32.471Z,3.33
2019-02-08T12:07:03.125Z,4.60
2019-02-08T12:09:33.353Z,4.37
2019-02-08T12:12:03.999Z,3.00
2019-02-08T12:14:34.557Z,2.63
2019-02-08T12:17:05.241Z,3.10
2019-02-08T12:19:35.589Z,2.27
2019-02-08T12:22:05.897Z,2.93
2019-02-08T12:24:36.107Z,3.03
2019-02-08T12:27:06.558Z,2.00
2019-02-08T12:29:36.870Z,2.80
2019-02-08T12:32:07.209Z,2.27
2019-02-08T12:34:37.736Z,2.17
2019-02-08T12:37:08.032Z,2.63
2019-02-08T12:39:38.594Z,3.07
2019-02-08T12:42:08.962Z,2.10
2019-02-08T12:44:39.479Z,2.20
2019-02-08T12:47:09.701Z,3.10
2019-02-08T12:49:39.974Z,2.60
2019-02-08T12:52:10.283Z,2.20
2019-02-08T12:54:40.508Z,1.83
2019-02-08T12:57:10.700Z,2.53
2019-02-08T12:59:41.232Z,1.80
2019-02-08T13:02:11.430Z,2.63
2019-02-08T13:04:41.751Z,3.07
2019-02-08T13:07:11.968Z,2.67
2019-02-08T13:09:42.297Z,2.07
2019-02-08T13:12:12.548Z,2.50
2019-02-08T13:14:44.160Z,2.57
2019-02-08T13:17:14.428Z,1.80
2019-02-08T13:19:45.072Z,2.20
2019-02-08T13:22:15.400Z,1.97
2019-02-08T13:24:46.068Z,1.97
2019-02-08T13:27:16.739Z,1.97
2019-02-08T13:29:47.041Z,2.47
2019-02-08T13:32:17.657Z,2.10
2019-02-08T13:34:48.237Z,2.57
2019-02-08T13:37:18.428Z,1.93
2019-02-08T13:39:48.635Z,2.30
2019-02-08T13:42:18.911Z,2.30
2019-02-08T13:44:49.817Z,1.80
2019-02-08T13:47:20.114Z,1.97
2019-02-08T13:49:50.366Z,1.73
2019-02-08T13:52:20.954Z,1.73
2019-02-08T13:54:51.651Z,1.73
2019-02-08T13:57:23.023Z,1.80
2019-02-08T13:59:53.253Z,2.00
2019-02-08T14:02:23.811Z,2.00
2019-02-08T14:04:54.051Z,1.80
2019-02-08T14:07:24.258Z,1.97
2019-02-08T14:09:54.469Z,2.43
2019-02-08T14:12:25.008Z,1.83
2019-02-08T14:14:55.286Z,1.80
2019-02-08T14:17:25.555Z,2.23
2019-02-08T14:19:55.709Z,1.73
2019-02-08T14:22:26.310Z,2.20
2019-02-08T14:24:56.551Z,2.00
2019-02-08T14:27:26.763Z,2.43
2019-02-08T14:29:57.072Z,1.93
2019-02-08T14:32:28.349Z,1.80
2019-02-08T14:34:58.696Z,1.93
2019-02-08T14:37:29.275Z,1.33
2019-02-08T14:40:00.599Z,2.00
2019-02-08T14:42:35.768Z,2.40
2019-02-08T14:45:11.857Z,1.63
2019-02-08T14:47:42.687Z,1.77
2019-02-08T14:50:18.588Z,1.93
2019-02-08T14:52:50.025Z,2.13
2019-02-08T14:55:20.487Z,1.70
2019-02-08T14:57:51.655Z,2.33
2019-02-08T15:00:22.316Z,2.27
2019-02-08T15:02:52.673Z,2.17
2019-02-08T15:05:23.309Z,1.70
2019-02-08T15:07:53.642Z,1.70
2019-02-08T15:10:29.804Z,1.93
2019-02-08T15:13:00.498Z,1.90
2019-02-08T15:15:31.097Z,2.80
2019-02-08T15:18:01.767Z,1.43
2019-02-08T15:20:32.786Z,2.07
2019-02-08T15:23:03.626Z,1.80
2019-02-08T15:25:33.964Z,1.87
2019-02-08T15:28:09.518Z,1.77
2019-02-08T15:30:41.746Z,1.40
2019-02-08T15:33:11.883Z,1.63
2019-02-08T15:35:42.133Z,2.97
2019-02-08T15:38:12.382Z,1.60
2019-02-08T15:40:48.075Z,1.90
2019-02-08T15:43:20.293Z,1.63
2019-02-08T15:45:53.329Z,2.30
2019-02-08T15:48:23.704Z,1.30
2019-02-08T15:50:54.118Z,1.70
2019-02-08T15:53:24.882Z,1.87
2019-02-08T15:56:01.921Z,2.00
2019-02-08T15:58:32.130Z,1.50
2019-02-08T16:01:02.464Z,1.57
2019-02-08T16:03:32.778Z,1.20
2019-02-08T16:06:03.039Z,1.67
2019-02-08T16:08:33.316Z,2.07
2019-02-08T16:11:03.591Z,1.90
2019-02-08T16:13:34.576Z,2.30
2019-02-08T16:16:06.844Z,1.60
2019-02-08T16:18:37.105Z,1.57
2019-02-08T16:21:07.889Z,1.90
2019-02-08T16:23:38.109Z,2.20
2019-02-08T16:26:08.349Z,1.70
2019-02-08T16:28:38.630Z,1.80
2019-02-08T16:31:09.633Z,1.63
2019-02-08T16:33:39.795Z,1.80
2019-02-08T16:36:10.480Z,1.70
2019-02-08T16:38:40.671Z,1.70
2019-02-08T16:41:11.373Z,2.30
2019-02-08T16:43:41.715Z,1.80
2019-02-08T16:46:12.129Z,2.23
2019-02-08T16:48:42.858Z,1.77
2019-02-08T16:51:13.421Z,1.97
2019-02-08T16:53:44.073Z,2.10
2019-02-08T16:56:15.603Z,1.73
2019-02-08T16:58:46.137Z,1.60
2019-02-08T17:01:16.387Z,1.77
2019-02-08T17:03:47.049Z,2.17
2019-02-08T17:06:17.589Z,1.90
2019-02-08T17:08:48.888Z,1.47
2019-02-08T17:11:19.132Z,1.93
2019-02-08T17:13:49.481Z,1.73
2019-02-08T17:16:19.808Z,1.60
2019-02-08T17:18:50.443Z,1.40
2019-02-08T17:21:20.678Z,1.40
2019-02-08T17:23:50.913Z,1.90
2019-02-08T17:26:21.533Z,2.07
2019-02-08T17:28:53.793Z,1.60
2019-02-08T17:31:24.119Z,1.77
2019-02-08T17:33:54.518Z,1.83
2019-02-08T17:36:24.844Z,1.93
2019-02-08T17:38:55.119Z,1.57
2019-02-08T17:41:25.630Z,2.80
2019-02-08T17:43:55.868Z,1.97
2019-02-08T17:46:26.530Z,1.80
2019-02-08T17:48:56.708Z,1.47
2019-02-08T17:51:26.988Z,1.80
2019-02-08T17:53:57.377Z,1.67
2019-02-08T17:56:28.082Z,2.00
2019-02-08T17:58:58.450Z,2.03
2019-02-08T18:01:29.570Z,1.60
2019-02-08T18:03:59.893Z,1.63
2019-02-08T18:06:30.160Z,1.87
2019-02-08T18:09:00.871Z,1.80
2019-02-08T18:11:32.871Z,1.43
2019-02-08T18:14:03.542Z,1.83
2019-02-08T18:16:33.785Z,1.93
2019-02-08T18:19:04.037Z,1.80
2019-02-08T18:21:34.894Z,1.97
2019-02-08T18:24:05.494Z,2.10
2019-02-08T18:26:35.753Z,2.30
2019-02-08T18:29:05.959Z,1.60
2019-02-08T18:31:36.620Z,1.70
2019-02-08T18:34:07.328Z,2.00
2019-02-08T18:36:37.633Z,1.90
2019-02-08T18:39:08.848Z,1.67
2019-02-08T18:41:39.741Z,2.20
2019-02-08T18:44:10.407Z,2.10
2019-02-08T18:46:41.037Z,1.87
2019-02-08T18:49:11.370Z,2.00
2019-02-08T18:51:42.156Z,1.70
2019-02-08T18:54:12.477Z,1.33
2019-02-08T18:56:43.359Z,2.00
2019-02-08T18:59:13.678Z,1.97
2019-02-08T19:01:44.011Z,2.07
2019-02-08T19:04:14.187Z,2.20
2019-02-08T19:06:44.694Z,1.80
2019-02-08T19:09:15.146Z,2.10
2019-02-08T19:11:45.418Z,2.03
2019-02-08T19:14:15.627Z,2.50
2019-02-08T19:16:45.858Z,2.20
2019-02-08T19:19:16.015Z,2.57
2019-02-08T19:21:46.612Z,1.90
2019-02-08T19:24:16.836Z,2.40
2019-02-08T19:26:47.901Z,2.30
2019-02-08T19:29:18.454Z,2.33
2019-02-08T19:31:48.664Z,2.50
2019-02-08T19:34:19.273Z,2.50
2019-02-08T19:36:49.507Z,2.50
2019-02-08T19:39:19.715Z,3.10
2019-02-08T19:41:50.424Z,3.07
2019-02-08T19:44:21.800Z,3.27
2019-02-08T19:46:52.112Z,2.33
2019-02-08T19:49:22.440Z,2.37
2019-02-08T19:51:53.132Z,3.00
2019-02-08T19:54:23.408Z,2.67
2019-02-08T19:56:53.651Z,2.80
2019-02-08T19:59:23.927Z,3.20
2019-02-08T20:01:54.194Z,3.43
2019-02-08T20:04:24.530Z,3.23
2019-02-08T20:06:55.132Z,3.27
2019-02-08T20:09:25.671Z,3.03
2019-02-08T20:11:56.084Z,3.40
2019-02-08T20:14:26.308Z,3.30
2019-02-08T20:16:56.537Z,2.90
2019-02-08T20:19:27.091Z,3.43
2019-02-08T20:21:57.416Z,3.43
2019-02-08T20:24:27.689Z,2.83
2019-02-08T20:26:58.312Z,3.03
2019-02-08T20:29:28.626Z,3.10
2019-02-08T20:31:58.861Z,2.80
2019-02-08T20:34:29.108Z,3.00
2019-02-08T20:36:59.720Z,3.10
2019-02-08T20:39:30.060Z,2.60
2019-02-08T20:42:00.286Z,3.03
2019-02-08T20:44:31.654Z,3.77
2019-02-08T20:47:02.900Z,3.00
2019-02-08T20:49:33.139Z,3.53
2019-02-08T20:52:03.799Z,3.27
2019-02-08T20:54:34.078Z,3.27
2019-02-08T20:57:04.545Z,3.43
2019-02-08T20:59:35.526Z,3.90
2019-02-08T21:02:05.969Z,3.40
2019-02-08T21:04:37.297Z,3.40
2019-02-08T21:07:07.595Z,3.63
2019-02-08T21:09:37.848Z,3.63
2019-02-08T21:12:08.131Z,3.83
2019-02-08T21:14:38.496Z,3.57
2019-02-08T21:17:08.779Z,3.57
2019-02-08T21:19:39.344Z,3.87
2019-02-08T21:22:09.753Z,3.37
2019-02-08T21:24:40.062Z,3.30
2019-02-08T21:27:10.388Z,3.70
2019-02-08T21:29:40.615Z,3.50
2019-02-08T21:32:10.827Z,3.67
2019-02-08T21:34:41.028Z,3.60
2019-02-08T21:37:11.659Z,3.97
2019-02-08T21:39:41.836Z,3.37
2019-02-08T21:42:12.088Z,3.60
2019-02-08T21:44:42.232Z,3.80
2019-02-08T21:47:12.485Z,3.37
2019-02-08T21:49:43.019Z,4.07
2019-02-08T21:52:13.276Z,3.50
2019-02-08T21:54:44.898Z,3.47
2019-02-08T21:57:15.132Z,3.23
2019-02-08T21:59:45.754Z,3.67
2019-02-08T22:02:16.156Z,2.93
2019-02-08T22:04:46.397Z,3.83
2019-02-08T22:07:16.572Z,3.27
2019-02-08T22:09:46.757Z,3.80
2019-02-08T22:12:17.309Z,3.23
2019-02-08T22:14:48.901Z,3.90
2019-02-08T22:17:19.827Z,3.40
2019-02-08T22:19:50.042Z,3.47
2019-02-08T22:22:20.610Z,3.37
2019-02-08T22:24:50.835Z,3.47
2019-02-08T22:27:21.088Z,3.23
2019-02-08T22:29:51.604Z,3.63
2019-02-08T22:32:21.902Z,3.07
2019-02-08T22:34:52.169Z,3.83
2019-02-08T22:37:22.757Z,3.13
2019-02-08T22:39:52.973Z,3.23
2019-02-08T22:42:23.742Z,3.23
2019-02-08T22:44:54.024Z,3.00
2019-02-08T22:47:24.386Z,3.20
2019-02-08T22:49:54.758Z,3.40
2019-02-08T22:52:25.082Z,3.17
2019-02-08T22:54:55.426Z,2.90
2019-02-08T22:57:25.621Z,3.33
2019-02-08T22:59:57.371Z,3.40
2019-02-08T23:02:28.262Z,3.30
2019-02-08T23:04:58.528Z,3.20
2019-02-08T23:07:28.980Z,3.37
2019-02-08T23:09:59.254Z,2.97
2019-02-08T23:12:30.691Z,3.03
2019-02-08T23:15:00.935Z,2.97
2019-02-08T23:17:31.743Z,3.17
2019-02-08T23:20:02.382Z,2.73
2019-02-08T23:22:34.019Z,2.23
2019-02-08T23:25:05.216Z,2.40
2019-02-08T23:27:35.507Z,2.40
2019-02-08T23:30:07.852Z,2.13
2019-02-08T23:32:38.423Z,2.57
2019-02-08T23:35:09.219Z,2.83
2019-02-08T23:37:40.197Z,1.90
2019-02-08T23:40:11.935Z,1.80
2019-02-08T23:42:42.149Z,3.20
2019-02-08T23:45:12.910Z,1.87
2019-02-08T23:47:43.088Z,1.90
2019-02-08T23:50:13.445Z,1.60
2019-02-08T23:52:44.104Z,1.73
2019-02-08T23:55:14.891Z,1.70
2019-02-08T23:57:45.136Z,1.07
